sensor_id;sensor_type;location;lat;lon;timestamp;P1;durP1;ratioP1;P2;durP2;ratioP2
80981;SDS011;70440;53.064;8.926;2024-03-02T00:00:05;0.88;;;0.80;;
80981;SDS011;70440;53.064;8.926;2024-03-02T00:02:45;0.65;;;0.43;;
80981;SDS011;70440;53.064;8.926;2024-03-02T00:05:12;0.75;;;0.63;;
80981;SDS011;70440;53.064;8.926;2024-03-02T00:07:42;0.80;;;0.73;;
80981;SDS011;70440;53.064;8.926;2024-03-02T00:10:09;0.60;;;0.60;;
80981;SDS011;70440;53.064;8.926;2024-03-02T00:12:35;0.60;;;0.57;;
80981;SDS011;70440;53.064;8.926;2024-03-02T00:15:01;0.90;;;0.63;;
80981;SDS011;70440;53.064;8.926;2024-03-02T00:17:52;0.70;;;0.70;;
80981;SDS011;70440;53.064;8.926;2024-03-02T00:20:18;0.60;;;0.60;;
80981;SDS011;70440;53.064;8.926;2024-03-02T00:25:13;0.40;;;0.40;;
80981;SDS011;70440;53.064;8.926;2024-03-02T00:27:38;0.65;;;0.50;;
80981;SDS011;70440;53.064;8.926;2024-03-02T00:30:50;0.40;;;0.40;;
80981;SDS011;70440;53.064;8.926;2024-03-02T00:32:59;0.55;;;0.52;;
80981;SDS011;70440;53.064;8.926;2024-03-02T00:35:24;0.85;;;0.85;;
80981;SDS011;70440;53.064;8.926;2024-03-02T00:37:49;0.80;;;0.80;;
80981;SDS011;70440;53.064;8.926;2024-03-02T00:40:16;0.70;;;0.70;;
80981;SDS011;70440;53.064;8.926;2024-03-02T00:42:41;0.50;;;0.50;;
80981;SDS011;70440;53.064;8.926;2024-03-02T00:45:10;0.50;;;0.50;;
80981;SDS011;70440;53.064;8.926;2024-03-02T00:47:38;0.32;;;0.32;;
80981;SDS011;70440;53.064;8.926;2024-03-02T00:50:05;0.43;;;0.35;;
80981;SDS011;70440;53.064;8.926;2024-03-02T00:52:31;0.90;;;0.52;;
80981;SDS011;70440;53.064;8.926;2024-03-02T00:54:58;0.65;;;0.65;;
80981;SDS011;70440;53.064;8.926;2024-03-02T00:57:23;0.60;;;0.60;;
80981;SDS011;70440;53.064;8.926;2024-03-02T00:59:51;0.43;;;0.40;;
80981;SDS011;70440;53.064;8.926;2024-03-02T01:02:16;0.55;;;0.55;;
80981;SDS011;70440;53.064;8.926;2024-03-02T01:04:41;0.50;;;0.50;;
80981;SDS011;70440;53.064;8.926;2024-03-02T01:07:07;0.70;;;0.55;;
80981;SDS011;70440;53.064;8.926;2024-03-02T01:09:32;1.17;;;1.08;;
80981;SDS011;70440;53.064;8.926;2024-03-02T01:11:57;0.98;;;0.95;;
80981;SDS011;70440;53.064;8.926;2024-03-02T01:14:23;0.60;;;0.60;;
80981;SDS011;70440;53.064;8.926;2024-03-02T01:16:49;0.82;;;0.70;;
80981;SDS011;70440;53.064;8.926;2024-03-02T01:19:14;0.77;;;0.77;;
80981;SDS011;70440;53.064;8.926;2024-03-02T01:21:40;0.73;;;0.73;;
80981;SDS011;70440;53.064;8.926;2024-03-02T01:24:05;0.40;;;0.40;;
80981;SDS011;70440;53.064;8.926;2024-03-02T01:26:31;0.73;;;0.70;;
80981;SDS011;70440;53.064;8.926;2024-03-02T01:28:56;0.50;;;0.40;;
80981;SDS011;70440;53.064;8.926;2024-03-02T01:31:21;0.68;;;0.60;;
80981;SDS011;70440;53.064;8.926;2024-03-02T01:33:47;0.77;;;0.68;;
80981;SDS011;70440;53.064;8.926;2024-03-02T01:36:12;0.60;;;0.60;;
80981;SDS011;70440;53.064;8.926;2024-03-02T01:38:37;0.80;;;0.80;;
80981;SDS011;70440;53.064;8.926;2024-03-02T01:41:03;0.90;;;0.70;;
80981;SDS011;70440;53.064;8.926;2024-03-02T01:43:28;0.70;;;0.70;;
80981;SDS011;70440;53.064;8.926;2024-03-02T01:45:54;0.95;;;0.52;;
80981;SDS011;70440;53.064;8.926;2024-03-02T01:48:19;0.50;;;0.50;;
80981;SDS011;70440;53.064;8.926;2024-03-02T01:50:44;0.63;;;0.60;;
80981;SDS011;70440;53.064;8.926;2024-03-02T01:53:10;1.25;;;0.77;;
80981;SDS011;70440;53.064;8.926;2024-03-02T01:55:35;1.10;;;0.98;;
80981;SDS011;70440;53.064;8.926;2024-03-02T01:58:01;1.55;;;1.23;;
80981;SDS011;70440;53.064;8.926;2024-03-02T02:00:26;1.17;;;1.00;;
80981;SDS011;70440;53.064;8.926;2024-03-02T02:02:52;1.92;;;0.93;;
80981;SDS011;70440;53.064;8.926;2024-03-02T02:05:18;1.40;;;1.13;;
80981;SDS011;70440;53.064;8.926;2024-03-02T02:07:43;1.48;;;1.38;;
80981;SDS011;70440;53.064;8.926;2024-03-02T02:10:12;2.13;;;1.92;;
80981;SDS011;70440;53.064;8.926;2024-03-02T02:12:38;0.98;;;0.85;;
80981;SDS011;70440;53.064;8.926;2024-03-02T02:15:04;0.80;;;0.70;;
80981;SDS011;70440;53.064;8.926;2024-03-02T02:17:46;0.50;;;0.50;;
80981;SDS011;70440;53.064;8.926;2024-03-02T02:20:12;1.10;;;0.80;;
80981;SDS011;70440;53.064;8.926;2024-03-02T02:22:37;0.60;;;0.60;;
80981;SDS011;70440;53.064;8.926;2024-03-02T02:25:02;0.70;;;0.70;;
80981;SDS011;70440;53.064;8.926;2024-03-02T02:27:28;0.77;;;0.60;;
80981;SDS011;70440;53.064;8.926;2024-03-02T02:29:53;0.50;;;0.50;;
80981;SDS011;70440;53.064;8.926;2024-03-02T02:32:18;0.95;;;0.80;;
80981;SDS011;70440;53.064;8.926;2024-03-02T02:34:44;0.85;;;0.82;;
80981;SDS011;70440;53.064;8.926;2024-03-02T02:37:09;1.05;;;0.75;;
80981;SDS011;70440;53.064;8.926;2024-03-02T02:39:34;0.80;;;0.50;;
80981;SDS011;70440;53.064;8.926;2024-03-02T02:42:00;0.82;;;0.70;;
80981;SDS011;70440;53.064;8.926;2024-03-02T02:44:26;1.13;;;0.88;;
80981;SDS011;70440;53.064;8.926;2024-03-02T02:46:51;0.55;;;0.55;;
80981;SDS011;70440;53.064;8.926;2024-03-02T02:49:16;0.80;;;0.80;;
80981;SDS011;70440;53.064;8.926;2024-03-02T02:51:42;0.55;;;0.55;;
80981;SDS011;70440;53.064;8.926;2024-03-02T02:54:07;0.80;;;0.68;;
80981;SDS011;70440;53.064;8.926;2024-03-02T02:56:33;0.65;;;0.60;;
80981;SDS011;70440;53.064;8.926;2024-03-02T02:58:58;0.75;;;0.52;;
80981;SDS011;70440;53.064;8.926;2024-03-02T03:01:23;0.63;;;0.63;;
80981;SDS011;70440;53.064;8.926;2024-03-02T03:03:49;0.77;;;0.60;;
80981;SDS011;70440;53.064;8.926;2024-03-02T03:06:14;0.88;;;0.80;;
80981;SDS011;70440;53.064;8.926;2024-03-02T03:08:40;0.50;;;0.50;;
80981;SDS011;70440;53.064;8.926;2024-03-02T03:11:05;1.10;;;0.82;;
80981;SDS011;70440;53.064;8.926;2024-03-02T03:13:31;0.90;;;0.90;;
80981;SDS011;70440;53.064;8.926;2024-03-02T03:15:57;1.13;;;0.77;;
80981;SDS011;70440;53.064;8.926;2024-03-02T03:18:22;0.90;;;0.80;;
80981;SDS011;70440;53.064;8.926;2024-03-02T03:20:47;1.35;;;1.02;;
80981;SDS011;70440;53.064;8.926;2024-03-02T03:23:13;0.75;;;0.55;;
80981;SDS011;70440;53.064;8.926;2024-03-02T03:25:41;0.88;;;0.60;;
80981;SDS011;70440;53.064;8.926;2024-03-02T03:28:07;0.63;;;0.60;;
80981;SDS011;70440;53.064;8.926;2024-03-02T03:30:35;1.17;;;1.02;;
80981;SDS011;70440;53.064;8.926;2024-03-02T03:33:03;0.73;;;0.65;;
80981;SDS011;70440;53.064;8.926;2024-03-02T03:35:31;0.85;;;0.70;;
80981;SDS011;70440;53.064;8.926;2024-03-02T03:37:56;0.50;;;0.43;;
80981;SDS011;70440;53.064;8.926;2024-03-02T03:40:21;0.75;;;0.55;;
80981;SDS011;70440;53.064;8.926;2024-03-02T03:42:47;0.65;;;0.65;;
80981;SDS011;70440;53.064;8.926;2024-03-02T03:45:13;0.98;;;0.70;;
80981;SDS011;70440;53.064;8.926;2024-03-02T03:47:39;1.02;;;0.70;;
80981;SDS011;70440;53.064;8.926;2024-03-02T03:50:05;0.93;;;0.70;;
80981;SDS011;70440;53.064;8.926;2024-03-02T03:52:32;0.50;;;0.50;;
80981;SDS011;70440;53.064;8.926;2024-03-02T03:54:57;0.40;;;0.40;;
80981;SDS011;70440;53.064;8.926;2024-03-02T03:57:23;0.55;;;0.55;;
80981;SDS011;70440;53.064;8.926;2024-03-02T03:59:48;0.88;;;0.73;;
80981;SDS011;70440;53.064;8.926;2024-03-02T04:02:13;0.90;;;0.85;;
80981;SDS011;70440;53.064;8.926;2024-03-02T04:04:39;0.60;;;0.60;;
80981;SDS011;70440;53.064;8.926;2024-03-02T04:07:04;0.90;;;0.57;;
80981;SDS011;70440;53.064;8.926;2024-03-02T04:09:30;0.80;;;0.55;;
80981;SDS011;70440;53.064;8.926;2024-03-02T04:11:55;0.80;;;0.60;;
80981;SDS011;70440;53.064;8.926;2024-03-02T04:14:20;0.90;;;0.60;;
80981;SDS011;70440;53.064;8.926;2024-03-02T04:16:46;0.85;;;0.60;;
80981;SDS011;70440;53.064;8.926;2024-03-02T04:19:11;0.65;;;0.65;;
80981;SDS011;70440;53.064;8.926;2024-03-02T04:21:37;0.75;;;0.63;;
80981;SDS011;70440;53.064;8.926;2024-03-02T04:24:02;1.20;;;0.90;;
80981;SDS011;70440;53.064;8.926;2024-03-02T04:26:28;1.10;;;0.90;;
80981;SDS011;70440;53.064;8.926;2024-03-02T04:28:53;1.38;;;1.27;;
80981;SDS011;70440;53.064;8.926;2024-03-02T04:31:19;1.13;;;0.70;;
80981;SDS011;70440;53.064;8.926;2024-03-02T04:33:45;0.95;;;0.55;;
80981;SDS011;70440;53.064;8.926;2024-03-02T04:36:10;1.20;;;0.80;;
80981;SDS011;70440;53.064;8.926;2024-03-02T04:38:36;0.68;;;0.68;;
80981;SDS011;70440;53.064;8.926;2024-03-02T04:41:01;1.15;;;0.90;;
80981;SDS011;70440;53.064;8.926;2024-03-02T04:43:27;0.90;;;0.63;;
80981;SDS011;70440;53.064;8.926;2024-03-02T04:45:52;0.88;;;0.60;;
80981;SDS011;70440;53.064;8.926;2024-03-02T04:48:17;1.17;;;0.80;;
80981;SDS011;70440;53.064;8.926;2024-03-02T04:50:44;0.60;;;0.60;;
80981;SDS011;70440;53.064;8.926;2024-03-02T04:53:09;1.48;;;0.85;;
80981;SDS011;70440;53.064;8.926;2024-03-02T04:55:35;2.10;;;0.90;;
80981;SDS011;70440;53.064;8.926;2024-03-02T04:58:20;1.92;;;1.45;;
80981;SDS011;70440;53.064;8.926;2024-03-02T05:00:45;1.08;;;0.70;;
80981;SDS011;70440;53.064;8.926;2024-03-02T05:03:14;0.90;;;0.68;;
80981;SDS011;70440;53.064;8.926;2024-03-02T05:05:39;1.27;;;1.00;;
80981;SDS011;70440;53.064;8.926;2024-03-02T05:08:05;0.60;;;0.60;;
80981;SDS011;70440;53.064;8.926;2024-03-02T05:10:31;0.55;;;0.50;;
80981;SDS011;70440;53.064;8.926;2024-03-02T05:12:56;0.68;;;0.68;;
80981;SDS011;70440;53.064;8.926;2024-03-02T05:15:24;0.93;;;0.63;;
80981;SDS011;70440;53.064;8.926;2024-03-02T05:17:49;0.68;;;0.68;;
80981;SDS011;70440;53.064;8.926;2024-03-02T05:20:14;0.73;;;0.60;;
80981;SDS011;70440;53.064;8.926;2024-03-02T05:22:40;1.35;;;1.05;;
80981;SDS011;70440;53.064;8.926;2024-03-02T05:25:05;0.90;;;0.63;;
80981;SDS011;70440;53.064;8.926;2024-03-02T05:27:31;1.00;;;0.80;;
80981;SDS011;70440;53.064;8.926;2024-03-02T05:29:58;1.00;;;0.77;;
80981;SDS011;70440;53.064;8.926;2024-03-02T05:32:23;0.50;;;0.50;;
80981;SDS011;70440;53.064;8.926;2024-03-02T05:34:49;0.82;;;0.73;;
80981;SDS011;70440;53.064;8.926;2024-03-02T05:37:15;1.35;;;1.08;;
80981;SDS011;70440;53.064;8.926;2024-03-02T05:39:41;0.85;;;0.63;;
80981;SDS011;70440;53.064;8.926;2024-03-02T05:42:08;0.95;;;0.70;;
80981;SDS011;70440;53.064;8.926;2024-03-02T05:44:34;1.00;;;0.70;;
80981;SDS011;70440;53.064;8.926;2024-03-02T05:46:59;0.50;;;0.50;;
80981;SDS011;70440;53.064;8.926;2024-03-02T05:49:25;0.70;;;0.60;;
80981;SDS011;70440;53.064;8.926;2024-03-02T05:51:50;1.00;;;0.90;;
80981;SDS011;70440;53.064;8.926;2024-03-02T05:54:15;1.17;;;0.73;;
80981;SDS011;70440;53.064;8.926;2024-03-02T05:56:41;0.60;;;0.40;;
80981;SDS011;70440;53.064;8.926;2024-03-02T05:59:06;0.75;;;0.50;;
80981;SDS011;70440;53.064;8.926;2024-03-02T06:01:42;0.77;;;0.50;;
80981;SDS011;70440;53.064;8.926;2024-03-02T06:04:08;0.60;;;0.50;;
80981;SDS011;70440;53.064;8.926;2024-03-02T06:06:34;0.80;;;0.60;;
80981;SDS011;70440;53.064;8.926;2024-03-02T06:09:00;1.17;;;0.70;;
80981;SDS011;70440;53.064;8.926;2024-03-02T06:11:27;1.45;;;0.65;;
80981;SDS011;70440;53.064;8.926;2024-03-02T06:13:53;0.43;;;0.40;;
80981;SDS011;70440;53.064;8.926;2024-03-02T06:16:18;0.70;;;0.52;;
80981;SDS011;70440;53.064;8.926;2024-03-02T06:18:43;1.00;;;0.80;;
80981;SDS011;70440;53.064;8.926;2024-03-02T06:21:09;0.60;;;0.60;;
80981;SDS011;70440;53.064;8.926;2024-03-02T06:23:34;0.43;;;0.43;;
80981;SDS011;70440;53.064;8.926;2024-03-02T06:26:00;1.00;;;0.90;;
80981;SDS011;70440;53.064;8.926;2024-03-02T06:28:26;0.60;;;0.60;;
80981;SDS011;70440;53.064;8.926;2024-03-02T06:30:51;0.40;;;0.40;;
80981;SDS011;70440;53.064;8.926;2024-03-02T06:33:17;0.40;;;0.40;;
80981;SDS011;70440;53.064;8.926;2024-03-02T06:35:42;0.82;;;0.52;;
80981;SDS011;70440;53.064;8.926;2024-03-02T06:38:08;0.75;;;0.70;;
80981;SDS011;70440;53.064;8.926;2024-03-02T06:40:33;0.50;;;0.50;;
80981;SDS011;70440;53.064;8.926;2024-03-02T06:42:59;0.40;;;0.30;;
80981;SDS011;70440;53.064;8.926;2024-03-02T06:45:24;0.80;;;0.80;;
80981;SDS011;70440;53.064;8.926;2024-03-02T06:47:49;0.50;;;0.50;;
80981;SDS011;70440;53.064;8.926;2024-03-02T06:50:15;0.40;;;0.40;;
80981;SDS011;70440;53.064;8.926;2024-03-02T06:52:40;0.55;;;0.45;;
80981;SDS011;70440;53.064;8.926;2024-03-02T06:55:06;0.98;;;0.75;;
80981;SDS011;70440;53.064;8.926;2024-03-02T06:57:31;0.30;;;0.20;;
80981;SDS011;70440;53.064;8.926;2024-03-02T06:59:56;0.65;;;0.40;;
80981;SDS011;70440;53.064;8.926;2024-03-02T07:02:24;0.70;;;0.70;;
80981;SDS011;70440;53.064;8.926;2024-03-02T07:04:51;0.90;;;0.90;;
80981;SDS011;70440;53.064;8.926;2024-03-02T07:07:17;1.10;;;1.00;;
80981;SDS011;70440;53.064;8.926;2024-03-02T07:09:43;0.75;;;0.52;;
80981;SDS011;70440;53.064;8.926;2024-03-02T07:12:08;0.50;;;0.32;;
80981;SDS011;70440;53.064;8.926;2024-03-02T07:14:34;1.33;;;0.75;;
80981;SDS011;70440;53.064;8.926;2024-03-02T07:17:18;0.88;;;0.70;;
80981;SDS011;70440;53.064;8.926;2024-03-02T07:19:44;1.70;;;0.80;;
80981;SDS011;70440;53.064;8.926;2024-03-02T07:22:09;0.80;;;0.45;;
80981;SDS011;70440;53.064;8.926;2024-03-02T07:24:44;0.93;;;0.75;;
80981;SDS011;70440;53.064;8.926;2024-03-02T07:27:10;0.70;;;0.63;;
80981;SDS011;70440;53.064;8.926;2024-03-02T07:29:37;0.88;;;0.70;;
80981;SDS011;70440;53.064;8.926;2024-03-02T07:32:03;1.02;;;0.77;;
80981;SDS011;70440;53.064;8.926;2024-03-02T07:34:28;1.40;;;0.82;;
80981;SDS011;70440;53.064;8.926;2024-03-02T07:36:54;1.95;;;0.90;;
80981;SDS011;70440;53.064;8.926;2024-03-02T07:39:20;1.23;;;0.90;;
80981;SDS011;70440;53.064;8.926;2024-03-02T07:41:45;0.82;;;0.82;;
80981;SDS011;70440;53.064;8.926;2024-03-02T07:44:11;0.70;;;0.70;;
80981;SDS011;70440;53.064;8.926;2024-03-02T07:46:39;1.25;;;1.15;;
80981;SDS011;70440;53.064;8.926;2024-03-02T07:49:06;1.95;;;0.88;;
80981;SDS011;70440;53.064;8.926;2024-03-02T07:51:31;1.63;;;1.13;;
80981;SDS011;70440;53.064;8.926;2024-03-02T07:53:56;1.30;;;0.90;;
80981;SDS011;70440;53.064;8.926;2024-03-02T07:56:22;1.30;;;0.85;;
80981;SDS011;70440;53.064;8.926;2024-03-02T07:58:48;0.85;;;0.60;;
80981;SDS011;70440;53.064;8.926;2024-03-02T08:01:14;1.63;;;1.13;;
80981;SDS011;70440;53.064;8.926;2024-03-02T08:03:39;1.38;;;0.85;;
80981;SDS011;70440;53.064;8.926;2024-03-02T08:06:05;1.30;;;0.90;;
80981;SDS011;70440;53.064;8.926;2024-03-02T08:08:31;1.20;;;0.80;;
80981;SDS011;70440;53.064;8.926;2024-03-02T08:10:56;1.77;;;1.00;;
80981;SDS011;70440;53.064;8.926;2024-03-02T08:13:22;1.58;;;1.10;;
80981;SDS011;70440;53.064;8.926;2024-03-02T08:15:47;1.30;;;1.20;;
80981;SDS011;70440;53.064;8.926;2024-03-02T08:18:12;1.45;;;1.20;;
80981;SDS011;70440;53.064;8.926;2024-03-02T08:20:38;1.25;;;0.90;;
80981;SDS011;70440;53.064;8.926;2024-03-02T08:23:04;0.68;;;0.50;;
80981;SDS011;70440;53.064;8.926;2024-03-02T08:25:29;1.98;;;1.10;;
80981;SDS011;70440;53.064;8.926;2024-03-02T08:27:55;1.20;;;0.80;;
80981;SDS011;70440;53.064;8.926;2024-03-02T08:30:20;1.40;;;1.30;;
80981;SDS011;70440;53.064;8.926;2024-03-02T08:32:46;1.15;;;0.77;;
80981;SDS011;70440;53.064;8.926;2024-03-02T08:35:12;1.40;;;0.88;;
80981;SDS011;70440;53.064;8.926;2024-03-02T08:37:39;0.65;;;0.65;;
80981;SDS011;70440;53.064;8.926;2024-03-02T08:40:06;1.67;;;1.00;;
80981;SDS011;70440;53.064;8.926;2024-03-02T08:42:32;1.13;;;0.90;;
80981;SDS011;70440;53.064;8.926;2024-03-02T08:44:58;1.40;;;1.13;;
80981;SDS011;70440;53.064;8.926;2024-03-02T08:47:25;1.42;;;1.23;;
80981;SDS011;70440;53.064;8.926;2024-03-02T08:49:51;0.85;;;0.60;;
80981;SDS011;70440;53.064;8.926;2024-03-02T08:52:17;1.45;;;0.80;;
80981;SDS011;70440;53.064;8.926;2024-03-02T08:54:42;1.10;;;1.00;;
80981;SDS011;70440;53.064;8.926;2024-03-02T08:57:07;2.08;;;1.50;;
80981;SDS011;70440;53.064;8.926;2024-03-02T08:59:33;2.28;;;1.40;;
80981;SDS011;70440;53.064;8.926;2024-03-02T09:01:58;1.88;;;1.35;;
80981;SDS011;70440;53.064;8.926;2024-03-02T09:04:24;1.38;;;0.90;;
80981;SDS011;70440;53.064;8.926;2024-03-02T09:06:49;2.10;;;1.10;;
80981;SDS011;70440;53.064;8.926;2024-03-02T09:09:15;2.38;;;0.90;;
80981;SDS011;70440;53.064;8.926;2024-03-02T09:11:40;0.70;;;0.57;;
80981;SDS011;70440;53.064;8.926;2024-03-02T09:14:05;0.93;;;0.75;;
80981;SDS011;70440;53.064;8.926;2024-03-02T09:16:31;0.82;;;0.65;;
80981;SDS011;70440;53.064;8.926;2024-03-02T09:18:57;1.50;;;1.08;;
80981;SDS011;70440;53.064;8.926;2024-03-02T09:21:22;1.20;;;0.82;;
80981;SDS011;70440;53.064;8.926;2024-03-02T09:23:48;2.03;;;1.45;;
80981;SDS011;70440;53.064;8.926;2024-03-02T09:26:13;1.80;;;1.20;;
80981;SDS011;70440;53.064;8.926;2024-03-02T09:28:42;1.42;;;1.23;;
80981;SDS011;70440;53.064;8.926;2024-03-02T09:31:08;1.75;;;1.15;;
80981;SDS011;70440;53.064;8.926;2024-03-02T09:33:34;1.98;;;1.75;;
80981;SDS011;70440;53.064;8.926;2024-03-02T09:35:59;1.30;;;0.98;;
80981;SDS011;70440;53.064;8.926;2024-03-02T09:38:24;2.80;;;1.70;;
80981;SDS011;70440;53.064;8.926;2024-03-02T09:40:50;1.83;;;1.50;;
80981;SDS011;70440;53.064;8.926;2024-03-02T09:43:15;1.73;;;1.40;;
80981;SDS011;70440;53.064;8.926;2024-03-02T09:45:40;1.80;;;1.45;;
80981;SDS011;70440;53.064;8.926;2024-03-02T09:48:06;2.00;;;1.35;;
80981;SDS011;70440;53.064;8.926;2024-03-02T09:50:32;2.00;;;1.80;;
80981;SDS011;70440;53.064;8.926;2024-03-02T09:52:57;2.47;;;1.52;;
80981;SDS011;70440;53.064;8.926;2024-03-02T09:55:24;2.13;;;1.67;;
80981;SDS011;70440;53.064;8.926;2024-03-02T09:57:50;1.70;;;1.17;;
80981;SDS011;70440;53.064;8.926;2024-03-02T10:00:16;1.83;;;1.25;;
80981;SDS011;70440;53.064;8.926;2024-03-02T10:02:42;1.25;;;1.05;;
80981;SDS011;70440;53.064;8.926;2024-03-02T10:05:08;1.80;;;1.27;;
80981;SDS011;70440;53.064;8.926;2024-03-02T10:07:34;1.45;;;1.33;;
80981;SDS011;70440;53.064;8.926;2024-03-02T10:10:00;2.35;;;1.75;;
80981;SDS011;70440;53.064;8.926;2024-03-02T10:12:37;2.03;;;1.40;;
80981;SDS011;70440;53.064;8.926;2024-03-02T10:15:03;1.58;;;1.30;;
80981;SDS011;70440;53.064;8.926;2024-03-02T10:17:32;1.65;;;1.45;;
80981;SDS011;70440;53.064;8.926;2024-03-02T10:19:58;1.67;;;1.55;;
80981;SDS011;70440;53.064;8.926;2024-03-02T10:22:23;2.97;;;2.00;;
80981;SDS011;70440;53.064;8.926;2024-03-02T10:24:49;1.90;;;1.42;;
80981;SDS011;70440;53.064;8.926;2024-03-02T10:29:46;1.13;;;0.95;;
80981;SDS011;70440;53.064;8.926;2024-03-02T10:34:41;1.17;;;0.85;;
80981;SDS011;70440;53.064;8.926;2024-03-02T10:37:07;1.35;;;1.13;;
80981;SDS011;70440;53.064;8.926;2024-03-02T10:39:39;2.20;;;1.50;;
80981;SDS011;70440;53.064;8.926;2024-03-02T10:42:21;2.42;;;1.42;;
80981;SDS011;70440;53.064;8.926;2024-03-02T10:44:48;1.92;;;1.40;;
80981;SDS011;70440;53.064;8.926;2024-03-02T10:47:14;1.15;;;1.05;;
80981;SDS011;70440;53.064;8.926;2024-03-02T10:49:41;1.23;;;1.00;;
80981;SDS011;70440;53.064;8.926;2024-03-02T10:52:08;2.08;;;1.50;;
80981;SDS011;70440;53.064;8.926;2024-03-02T10:54:34;1.55;;;1.45;;
80981;SDS011;70440;53.064;8.926;2024-03-02T10:57:04;1.10;;;1.00;;
80981;SDS011;70440;53.064;8.926;2024-03-02T10:59:37;1.60;;;1.48;;
80981;SDS011;70440;53.064;8.926;2024-03-02T11:02:11;1.30;;;1.02;;
80981;SDS011;70440;53.064;8.926;2024-03-02T11:04:37;2.00;;;1.42;;
80981;SDS011;70440;53.064;8.926;2024-03-02T11:07:04;1.52;;;1.20;;
80981;SDS011;70440;53.064;8.926;2024-03-02T11:09:33;1.92;;;1.40;;
80981;SDS011;70440;53.064;8.926;2024-03-02T11:14:43;1.33;;;1.10;;
80981;SDS011;70440;53.064;8.926;2024-03-02T11:17:40;1.52;;;1.23;;
80981;SDS011;70440;53.064;8.926;2024-03-02T11:20:06;1.02;;;0.93;;
80981;SDS011;70440;53.064;8.926;2024-03-02T11:22:34;1.67;;;1.42;;
80981;SDS011;70440;53.064;8.926;2024-03-02T11:25:00;1.35;;;1.20;;
80981;SDS011;70440;53.064;8.926;2024-03-02T11:33:04;0.60;;;0.60;;
80981;SDS011;70440;53.064;8.926;2024-03-02T11:35:34;1.10;;;0.90;;
80981;SDS011;70440;53.064;8.926;2024-03-02T11:38:00;1.25;;;0.80;;
80981;SDS011;70440;53.064;8.926;2024-03-02T11:40:26;1.35;;;0.90;;
80981;SDS011;70440;53.064;8.926;2024-03-02T11:42:52;0.88;;;0.88;;
80981;SDS011;70440;53.064;8.926;2024-03-02T11:45:25;1.25;;;0.77;;
80981;SDS011;70440;53.064;8.926;2024-03-02T11:47:51;1.02;;;0.82;;
80981;SDS011;70440;53.064;8.926;2024-03-02T11:50:30;0.98;;;0.80;;
80981;SDS011;70440;53.064;8.926;2024-03-02T11:53:19;0.98;;;0.82;;
80981;SDS011;70440;53.064;8.926;2024-03-02T11:55:45;1.15;;;0.80;;
80981;SDS011;70440;53.064;8.926;2024-03-02T11:58:14;0.90;;;0.70;;
80981;SDS011;70440;53.064;8.926;2024-03-02T12:00:52;0.88;;;0.80;;
80981;SDS011;70440;53.064;8.926;2024-03-02T12:03:20;0.60;;;0.50;;
80981;SDS011;70440;53.064;8.926;2024-03-02T12:05:50;1.17;;;0.98;;
80981;SDS011;70440;53.064;8.926;2024-03-02T12:08:17;0.60;;;0.52;;
80981;SDS011;70440;53.064;8.926;2024-03-02T12:10:42;0.80;;;0.80;;
80981;SDS011;70440;53.064;8.926;2024-03-02T12:13:09;1.92;;;1.52;;
80981;SDS011;70440;53.064;8.926;2024-03-02T12:15:36;0.98;;;0.88;;
80981;SDS011;70440;53.064;8.926;2024-03-02T12:18:03;0.80;;;0.70;;
80981;SDS011;70440;53.064;8.926;2024-03-02T12:20:29;1.45;;;0.95;;
80981;SDS011;70440;53.064;8.926;2024-03-02T12:22:57;0.75;;;0.70;;
80981;SDS011;70440;53.064;8.926;2024-03-02T12:25:23;0.88;;;0.70;;
80981;SDS011;70440;53.064;8.926;2024-03-02T12:27:53;0.85;;;0.77;;
80981;SDS011;70440;53.064;8.926;2024-03-02T12:30:20;0.77;;;0.70;;
80981;SDS011;70440;53.064;8.926;2024-03-02T12:32:46;1.23;;;0.70;;
80981;SDS011;70440;53.064;8.926;2024-03-02T12:35:12;0.70;;;0.70;;
80981;SDS011;70440;53.064;8.926;2024-03-02T12:37:47;1.17;;;0.88;;
80981;SDS011;70440;53.064;8.926;2024-03-02T12:40:14;1.23;;;0.90;;
80981;SDS011;70440;53.064;8.926;2024-03-02T12:42:42;1.30;;;0.95;;
80981;SDS011;70440;53.064;8.926;2024-03-02T12:45:08;1.67;;;0.90;;
80981;SDS011;70440;53.064;8.926;2024-03-02T12:47:37;1.42;;;0.65;;
80981;SDS011;70440;53.064;8.926;2024-03-02T12:50:05;0.98;;;0.88;;
80981;SDS011;70440;53.064;8.926;2024-03-02T12:52:32;0.63;;;0.52;;
80981;SDS011;70440;53.064;8.926;2024-03-02T12:55:01;1.10;;;1.00;;
80981;SDS011;70440;53.064;8.926;2024-03-02T12:57:29;0.63;;;0.63;;
80981;SDS011;70440;53.064;8.926;2024-03-02T12:59:59;0.63;;;0.63;;
80981;SDS011;70440;53.064;8.926;2024-03-02T13:02:27;0.93;;;0.80;;
80981;SDS011;70440;53.064;8.926;2024-03-02T13:04:53;0.65;;;0.60;;
80981;SDS011;70440;53.064;8.926;2024-03-02T13:07:19;0.52;;;0.50;;
80981;SDS011;70440;53.064;8.926;2024-03-02T13:09:45;0.80;;;0.65;;
80981;SDS011;70440;53.064;8.926;2024-03-02T13:12:11;0.70;;;0.60;;
80981;SDS011;70440;53.064;8.926;2024-03-02T13:14:36;0.47;;;0.47;;
80981;SDS011;70440;53.064;8.926;2024-03-02T13:17:02;0.73;;;0.60;;
80981;SDS011;70440;53.064;8.926;2024-03-02T13:19:30;1.02;;;0.70;;
80981;SDS011;70440;53.064;8.926;2024-03-02T13:21:56;0.80;;;0.68;;
80981;SDS011;70440;53.064;8.926;2024-03-02T13:24:22;0.73;;;0.60;;
80981;SDS011;70440;53.064;8.926;2024-03-02T13:29:20;0.70;;;0.50;;
80981;SDS011;70440;53.064;8.926;2024-03-02T13:31:46;0.60;;;0.60;;
80981;SDS011;70440;53.064;8.926;2024-03-02T13:34:11;0.50;;;0.50;;
80981;SDS011;70440;53.064;8.926;2024-03-02T13:36:37;0.50;;;0.50;;
80981;SDS011;70440;53.064;8.926;2024-03-02T13:39:03;0.43;;;0.43;;
80981;SDS011;70440;53.064;8.926;2024-03-02T13:41:31;0.50;;;0.50;;
80981;SDS011;70440;53.064;8.926;2024-03-02T13:43:57;0.65;;;0.50;;
80981;SDS011;70440;53.064;8.926;2024-03-02T13:48:50;0.40;;;0.40;;
80981;SDS011;70440;53.064;8.926;2024-03-02T13:51:17;0.80;;;0.50;;
80981;SDS011;70440;53.064;8.926;2024-03-02T13:53:42;0.50;;;0.50;;
80981;SDS011;70440;53.064;8.926;2024-03-02T13:56:08;0.50;;;0.40;;
80981;SDS011;70440;53.064;8.926;2024-03-02T13:58:35;0.50;;;0.50;;
80981;SDS011;70440;53.064;8.926;2024-03-02T14:01:01;0.40;;;0.40;;
80981;SDS011;70440;53.064;8.926;2024-03-02T14:03:29;0.50;;;0.50;;
80981;SDS011;70440;53.064;8.926;2024-03-02T14:05:54;0.77;;;0.60;;
80981;SDS011;70440;53.064;8.926;2024-03-02T14:08:20;2.72;;;0.43;;
80981;SDS011;70440;53.064;8.926;2024-03-02T14:10:46;0.50;;;0.50;;
80981;SDS011;70440;53.064;8.926;2024-03-02T14:13:11;1.25;;;1.00;;
80981;SDS011;70440;53.064;8.926;2024-03-02T14:15:37;0.47;;;0.40;;
80981;SDS011;70440;53.064;8.926;2024-03-02T14:20:31;0.68;;;0.68;;
80981;SDS011;70440;53.064;8.926;2024-03-02T14:22:57;0.40;;;0.40;;
80981;SDS011;70440;53.064;8.926;2024-03-02T14:25:24;0.50;;;0.40;;
80981;SDS011;70440;53.064;8.926;2024-03-02T14:27:50;1.30;;;0.98;;
80981;SDS011;70440;53.064;8.926;2024-03-02T14:30:15;1.00;;;0.90;;
80981;SDS011;70440;53.064;8.926;2024-03-02T14:32:41;0.35;;;0.35;;
80981;SDS011;70440;53.064;8.926;2024-03-02T14:35:06;0.45;;;0.38;;
80981;SDS011;70440;53.064;8.926;2024-03-02T14:37:35;0.40;;;0.40;;
80981;SDS011;70440;53.064;8.926;2024-03-02T14:40:01;0.52;;;0.43;;
80981;SDS011;70440;53.064;8.926;2024-03-02T14:42:26;0.30;;;0.30;;
80981;SDS011;70440;53.064;8.926;2024-03-02T14:44:56;0.43;;;0.43;;
80981;SDS011;70440;53.064;8.926;2024-03-02T14:47:21;0.55;;;0.50;;
80981;SDS011;70440;53.064;8.926;2024-03-02T14:49:47;0.40;;;0.40;;
80981;SDS011;70440;53.064;8.926;2024-03-02T14:52:12;0.52;;;0.50;;
80981;SDS011;70440;53.064;8.926;2024-03-02T14:54:38;0.85;;;0.70;;
80981;SDS011;70440;53.064;8.926;2024-03-02T14:57:03;0.70;;;0.60;;
80981;SDS011;70440;53.064;8.926;2024-03-02T14:59:29;0.65;;;0.65;;
80981;SDS011;70440;53.064;8.926;2024-03-02T15:01:55;1.02;;;0.70;;
80981;SDS011;70440;53.064;8.926;2024-03-02T15:04:20;0.90;;;0.77;;
80981;SDS011;70440;53.064;8.926;2024-03-02T15:06:46;0.60;;;0.52;;